Time;durP1;ratioP1;P1;durP2;ratioP2;P2;SDS_P1;SDS_P2;PMS_P1;PMS_P2;Temp;Humidity;BMP_temperature;BMP_pressure;BME280_temperature;BME280_humidity;BME280_pressure;Samples;Min_cycle;Max_cycle;Signal;HPM_P1;HPM_P2
2022/08/08 00:02:09;;;;;;;0.10;0.10;;;19.20;99.90;;;;;;5063000;28;20657;-80
2022/08/08 00:04:52;;;;;;;0.30;0.23;;;19.20;99.90;;;;;;5074648;28;20208;-80
2022/08/08 00:07:27;;;;;;;0.10;0.10;;;19.20;99.90;;;;;;5063777;28;20648;-80
2022/08/08 00:09:55;;;;;;;0.10;0.10;;;19.20;99.90;;;;;;5066782;28;20204;-79
2022/08/08 00:12:29;;;;;;;0.10;0.10;;;19.20;99.90;;;;;;5063163;28;20197;-80
2022/08/08 00:15:06;;;;;;;0.20;0.20;;;19.20;99.90;;;;;;5063742;28;20193;-80
2022/08/08 00:17:46;;;;;;;0.20;0.20;;;19.10;99.90;;;;;;5066253;28;20277;-80
2022/08/08 00:20:15;;;;;;;0.10;0.10;;;19.00;99.90;;;;;;5063708;28;20192;-80
2022/08/08 00:22:53;;;;;;;0.73;0.43;;;19.00;99.90;;;;;;5060108;28;20212;-79
2022/08/08 00:25:41;;;;;;;0.33;0.33;;;19.00;99.90;;;;;;5061890;28;20176;-80
2022/08/08 00:28:11;;;;;;;0.30;0.30;;;18.90;99.90;;;;;;5086892;28;20187;-80
2022/08/08 00:30:42;;;;;;;0.23;0.17;;;18.90;99.90;;;;;;5066357;28;20627;-80
2022/08/08 00:33:16;;;;;;;0.20;0.20;;;19.00;99.90;;;;;;5064117;28;20209;-80
2022/08/08 00:36:01;;;;;;;0.20;0.20;;;19.00;99.90;;;;;;5063858;28;20174;-80
2022/08/08 00:38:51;;;;;;;1.80;1.53;;;19.00;99.90;;;;;;5071585;28;20227;-80
2022/08/08 00:41:47;;;;;;;0.10;0.10;;;19.00;99.90;;;;;;5063365;28;20197;-80
2022/08/08 00:44:49;;;;;;;0.20;0.20;;;19.00;99.90;;;;;;5073585;28;20206;-80
2022/08/08 00:47:37;;;;;;;0.20;0.20;;;19.00;99.90;;;;;;5064822;28;20181;-81
2022/08/08 00:50:41;;;;;;;0.20;0.20;;;18.90;99.90;;;;;;5067174;28;20200;-80
2022/08/08 00:53:25;;;;;;;0.10;0.10;;;18.90;99.90;;;;;;5057011;28;20212;-80
2022/08/08 00:56:26;;;;;;;0.10;0.10;;;18.90;99.90;;;;;;5064860;28;20221;-80
2022/08/08 00:59:29;;;;;;;0.40;0.20;;;18.80;99.90;;;;;;5069113;28;20188;-80
2022/08/08 01:02:32;;;;;;;0.10;0.10;;;18.70;99.90;;;;;;5064476;28;20185;-79
2022/08/08 01:05:26;;;;;;;0.20;0.20;;;18.70;99.90;;;;;;5060544;28;20190;-80
2022/08/08 01:08:23;;;;;;;0.20;0.20;;;18.70;99.90;;;;;;5073168;28;20195;-80
2022/08/08 01:11:14;;;;;;;0.10;0.10;;;18.70;99.90;;;;;;5088743;28;20190;-80
2022/08/08 01:14:04;;;;;;;0.10;0.10;;;18.70;99.90;;;;;;5075075;28;20201;-80
2022/08/08 01:16:58;;;;;;;0.20;0.20;;;18.60;99.90;;;;;;5063821;28;20174;-80
2022/08/08 01:19:39;;;;;;;0.10;0.10;;;18.50;99.90;;;;;;5071802;28;20185;-79
2022/08/08 01:22:30;;;;;;;0.13;0.13;;;18.50;99.90;;;;;;5073378;28;20215;-79
2022/08/08 01:25:43;;;;;;;0.20;0.20;;;18.60;99.90;;;;;;5072154;28;20242;-80
2022/08/08 01:28:11;;;;;;;0.10;0.10;;;18.60;99.90;;;;;;5070518;28;20331;-80
2022/08/08 01:31:18;;;;;;;0.23;0.23;;;18.50;99.90;;;;;;5088912;28;20190;-80
2022/08/08 01:34:05;;;;;;;0.20;0.20;;;18.40;99.90;;;;;;5069109;28;20251;-80
2022/08/08 01:36:48;;;;;;;0.20;0.20;;;18.30;99.90;;;;;;5086954;28;20785;-80
2022/08/08 01:39:22;;;;;;;0.10;0.10;;;18.30;99.90;;;;;;5071932;28;20176;-80
2022/08/08 01:41:58;;;;;;;0.10;0.10;;;18.40;99.90;;;;;;5068436;28;20191;-80
2022/08/08 01:44:52;;;;;;;0.40;0.40;;;18.40;99.90;;;;;;5084711;28;20212;-80
2022/08/08 01:47:41;;;;;;;0.10;0.10;;;18.40;99.90;;;;;;5070191;28;20191;-79
2022/08/08 01:50:25;;;;;;;0.20;0.20;;;18.40;99.90;;;;;;5068565;28;20200;-80
2022/08/08 01:53:04;;;;;;;0.10;0.10;;;18.40;99.90;;;;;;5068221;28;20303;-79
2022/08/08 01:55:38;;;;;;;0.10;0.10;;;18.40;99.90;;;;;;5069537;28;20226;-79
2022/08/08 01:58:28;;;;;;;0.10;0.10;;;18.40;99.90;;;;;;5075340;28;20183;-80
2022/08/08 02:01:15;;;;;;;0.20;0.20;;;18.40;99.90;;;;;;5072012;28;20185;-80
2022/08/08 02:04:02;;;;;;;0.60;0.20;;;18.40;99.90;;;;;;5063512;28;20236;-79
2022/08/08 02:07:02;;;;;;;0.10;0.10;;;18.50;99.90;;;;;;5071632;28;20267;-80
2022/08/08 02:09:45;;;;;;;0.20;0.20;;;18.50;99.90;;;;;;5086591;28;20190;-80
2022/08/08 02:12:34;;;;;;;0.20;0.20;;;18.50;99.90;;;;;;5073376;28;20202;-80
2022/08/08 02:15:11;;;;;;;0.23;0.17;;;18.50;99.90;;;;;;5067694;28;20197;-80
2022/08/08 02:17:51;;;;;;;0.30;0.30;;;18.50;99.90;;;;;;5069848;28;20191;-80
2022/08/08 02:23:52;;;;;;;0.40;0.20;;;18.50;99.90;;;;;;5073788;28;20211;-80
2022/08/08 02:26:36;;;;;;;0.10;0.10;;;18.60;99.90;;;;;;5091152;28;21013;-80
2022/08/08 02:29:20;;;;;;;0.20;0.20;;;18.50;99.90;;;;;;5061288;28;20276;-80
2022/08/08 02:32:11;;;;;;;0.10;0.10;;;18.50;99.90;;;;;;5069169;28;20204;-80
2022/08/08 02:35:02;;;;;;;1.13;0.20;;;18.40;99.90;;;;;;5065570;28;20189;-80
2022/08/08 02:37:48;;;;;;;0.10;0.10;;;18.40;99.90;;;;;;5074567;28;20683;-80
2022/08/08 02:40:36;;;;;;;0.27;0.27;;;18.40;99.90;;;;;;5071508;28;20183;-80
2022/08/08 02:43:16;;;;;;;1.80;1.23;;;18.30;99.90;;;;;;5062489;28;20214;-80
2022/08/08 02:45:50;;;;;;;0.43;0.33;;;18.30;99.90;;;;;;5065763;28;20184;-80
2022/08/08 02:48:53;;;;;;;0.20;0.20;;;18.20;99.90;;;;;;5086533;28;21147;-80
2022/08/08 02:51:38;;;;;;;0.10;0.10;;;18.10;99.90;;;;;;5063780;28;20287;-79
2022/08/08 02:54:33;;;;;;;0.27;0.27;;;18.00;99.90;;;;;;5090694;28;20606;-80
2022/08/08 02:57:45;;;;;;;0.20;0.20;;;17.90;99.90;;;;;;5045477;28;20260;-79
2022/08/08 03:00:20;;;;;;;0.10;0.10;;;18.00;99.90;;;;;;5056332;28;20165;-80
2022/08/08 03:03:21;;;;;;;0.10;0.10;;;18.10;99.90;;;;;;5061909;28;20214;-80
2022/08/08 03:06:31;;;;;;;0.30;0.30;;;18.10;99.90;;;;;;5071029;28;20185;-80
2022/08/08 03:09:48;;;;;;;0.30;0.30;;;18.10;99.90;;;;;;5065335;28;20208;-80
2022/08/08 03:12:51;;;;;;;0.10;0.10;;;18.20;99.90;;;;;;5045829;28;20252;-80
2022/08/08 03:15:35;;;;;;;0.20;0.20;;;18.20;99.90;;;;;;5073294;28;20174;-80
2022/08/08 03:18:18;;;;;;;0.20;0.20;;;18.10;99.90;;;;;;5063510;28;20178;-80
2022/08/08 03:20:46;;;;;;;0.10;0.10;;;18.00;99.90;;;;;;5048638;28;20180;-80
2022/08/08 03:23:11;;;;;;;0.10;0.10;;;17.90;99.90;;;;;;5062327;28;20251;-80
2022/08/08 03:25:38;;;;;;;0.10;0.10;;;17.90;99.90;;;;;;5066142;28;20555;-80
2022/08/08 03:28:13;;;;;;;0.17;0.17;;;17.90;99.90;;;;;;5064315;28;20658;-80
2022/08/08 03:30:43;;;;;;;0.17;0.17;;;17.90;99.90;;;;;;5071815;28;20574;-79
2022/08/08 03:33:17;;;;;;;0.13;0.13;;;17.90;99.90;;;;;;5062187;28;20302;-80
2022/08/08 03:35:48;;;;;;;0.53;0.23;;;17.90;99.90;;;;;;5071103;28;20186;-80
2022/08/08 03:38:15;;;;;;;0.10;0.10;;;18.00;99.90;;;;;;5074317;28;20634;-80
2022/08/08 03:40:51;;;;;;;0.17;0.17;;;17.90;99.90;;;;;;5064359;28;20268;-80
2022/08/08 03:43:17;;;;;;;0.10;0.10;;;17.80;99.90;;;;;;5089412;28;20238;-80
2022/08/08 03:45:43;;;;;;;0.20;0.20;;;17.70;99.90;;;;;;5084952;28;20205;-80
2022/08/08 03:48:09;;;;;;;0.20;0.20;;;17.70;99.90;;;;;;5070073;28;20174;-79
2022/08/08 03:50:40;;;;;;;0.20;0.20;;;17.60;99.90;;;;;;5071712;28;20177;-80
2022/08/08 03:53:12;;;;;;;0.20;0.20;;;17.60;99.90;;;;;;5066310;28;20278;-80
2022/08/08 03:55:40;;;;;;;0.20;0.20;;;17.60;99.90;;;;;;5062530;28;20212;-80
2022/08/08 03:58:06;;;;;;;0.20;0.20;;;17.60;99.90;;;;;;5063038;28;20341;-79
2022/08/08 04:00:32;;;;;;;0.10;0.10;;;17.60;99.90;;;;;;5065471;28;20187;-80
2022/08/08 04:03:00;;;;;;;0.10;0.10;;;17.60;99.90;;;;;;5063070;28;20299;-80
2022/08/08 04:05:28;;;;;;;0.20;0.20;;;17.60;99.90;;;;;;5066879;28;20183;-80
2022/08/08 04:07:54;;;;;;;0.10;0.10;;;17.60;99.90;;;;;;5062753;28;20197;-80
2022/08/08 04:10:21;;;;;;;0.10;0.10;;;17.60;99.90;;;;;;5071137;28;20276;-80
2022/08/08 04:12:47;;;;;;;0.10;0.10;;;17.70;99.90;;;;;;5065710;28;20237;-80
2022/08/08 04:15:12;;;;;;;0.10;0.10;;;17.70;99.90;;;;;;5066299;28;20538;-80
2022/08/08 04:17:38;;;;;;;0.40;0.40;;;17.60;99.90;;;;;;5063328;28;20185;-80
2022/08/08 04:20:04;;;;;;;0.30;0.30;;;17.70;99.90;;;;;;5070287;28;20537;-79
2022/08/08 04:22:30;;;;;;;0.13;0.13;;;17.80;99.90;;;;;;5066594;28;20201;-81
2022/08/08 04:24:56;;;;;;;0.23;0.17;;;17.90;99.90;;;;;;5066186;28;20575;-80
2022/08/08 04:27:23;;;;;;;0.30;0.30;;;18.00;99.90;;;;;;5060900;28;20675;-79
2022/08/08 04:29:48;;;;;;;0.20;0.20;;;18.00;99.90;;;;;;5062874;28;20268;-80
2022/08/08 04:32:14;;;;;;;0.17;0.17;;;18.00;99.90;;;;;;5063019;28;20414;-80
2022/08/08 04:34:40;;;;;;;0.10;0.10;;;18.10;99.90;;;;;;5066155;28;20196;-80
2022/08/08 04:37:06;;;;;;;0.23;0.23;;;18.00;99.90;;;;;;5071921;28;20340;-80
2022/08/08 04:39:32;;;;;;;0.10;0.10;;;17.90;99.90;;;;;;5072595;28;20215;-79
2022/08/08 04:41:57;;;;;;;0.20;0.20;;;18.10;99.90;;;;;;5062557;28;20177;-80
2022/08/08 04:44:23;;;;;;;0.10;0.10;;;18.00;99.90;;;;;;5070350;28;20220;-80
2022/08/08 04:46:49;;;;;;;0.30;0.30;;;18.10;99.90;;;;;;5061441;28;20182;-80
2022/08/08 04:49:14;;;;;;;0.23;0.23;;;18.00;99.90;;;;;;5059473;28;20211;-80
2022/08/08 04:51:40;;;;;;;0.20;0.20;;;18.00;99.90;;;;;;5079845;28;20223;-80
2022/08/08 04:54:05;;;;;;;0.27;0.27;;;17.90;99.90;;;;;;5069944;28;20209;-80
2022/08/08 04:56:31;;;;;;;1.47;1.20;;;18.00;99.90;;;;;;5064755;28;20193;-80
2022/08/08 04:58:56;;;;;;;0.20;0.20;;;17.90;99.90;;;;;;5065345;28;20930;-80
2022/08/08 05:01:22;;;;;;;0.10;0.10;;;18.00;99.90;;;;;;5061301;28;20639;-80
2022/08/08 05:03:48;;;;;;;0.13;0.13;;;18.00;99.90;;;;;;5088307;28;20216;-80
2022/08/08 05:06:13;;;;;;;0.33;0.30;;;18.00;99.90;;;;;;5067247;28;20236;-80
2022/08/08 05:08:40;;;;;;;0.20;0.20;;;17.90;99.90;;;;;;5068800;28;20247;-79
2022/08/08 05:11:06;;;;;;;0.30;0.30;;;18.00;99.90;;;;;;5067409;28;20205;-80
2022/08/08 05:13:32;;;;;;;0.40;0.20;;;18.00;99.90;;;;;;5066780;28;20682;-80
2022/08/08 05:15:58;;;;;;;0.30;0.30;;;18.10;99.90;;;;;;5066410;28;20274;-79
2022/08/08 05:18:23;;;;;;;0.20;0.20;;;18.10;99.90;;;;;;5070160;28;20181;-79
2022/08/08 05:20:49;;;;;;;0.20;0.20;;;18.20;99.90;;;;;;5070251;28;20188;-79
2022/08/08 05:23:14;;;;;;;0.33;0.30;;;18.40;99.90;;;;;;5074051;28;20276;-79
2022/08/08 05:25:40;;;;;;;0.20;0.20;;;18.50;99.90;;;;;;5090627;28;21866;-79
2022/08/08 05:28:06;;;;;;;0.20;0.20;;;18.60;99.90;;;;;;5067292;28;20273;-79
2022/08/08 05:30:31;;;;;;;0.20;0.20;;;18.60;99.90;;;;;;5073526;28;20185;-79
2022/08/08 05:32:58;;;;;;;0.37;0.30;;;18.80;99.90;;;;;;5067040;28;20223;-79
2022/08/08 05:35:24;;;;;;;0.20;0.20;;;18.80;99.90;;;;;;5069043;28;20203;-79
2022/08/08 05:38:05;;;;;;;0.30;0.30;;;18.90;99.90;;;;;;5068762;28;20193;-79
2022/08/08 05:40:32;;;;;;;0.20;0.20;;;18.90;99.90;;;;;;5070568;28;20185;-79
2022/08/08 05:43:04;;;;;;;0.20;0.20;;;19.00;99.90;;;;;;5075223;28;20209;-79
2022/08/08 05:45:36;;;;;;;0.43;0.30;;;19.00;99.90;;;;;;5075851;28;20272;-80
2022/08/08 05:48:03;;;;;;;0.30;0.30;;;19.10;99.90;;;;;;5064217;28;20644;-79
2022/08/08 05:50:30;;;;;;;0.77;0.53;;;19.10;99.90;;;;;;5073526;28;20186;-84
2022/08/08 05:52:56;;;;;;;0.70;0.30;;;19.30;99.90;;;;;;5075933;28;20744;-79
2022/08/08 05:55:22;;;;;;;0.30;0.30;;;19.40;99.90;;;;;;5072604;28;20185;-81
2022/08/08 05:57:51;;;;;;;0.73;0.30;;;19.50;99.90;;;;;;5067264;28;20271;-79
2022/08/08 06:00:18;;;;;;;0.30;0.30;;;19.60;99.90;;;;;;5072599;28;20298;-79
2022/08/08 06:05:33;;;;;;;0.30;0.30;;;19.90;99.90;;;;;;5067473;28;20184;-79
2022/08/08 06:08:00;;;;;;;0.20;0.20;;;20.00;99.90;;;;;;5069884;28;20666;-79
2022/08/08 06:10:31;;;;;;;0.30;0.30;;;20.20;99.90;;;;;;5089813;28;20178;-79
2022/08/08 06:12:58;;;;;;;0.20;0.20;;;20.40;99.90;;;;;;5067228;28;20240;-79
2022/08/08 06:15:24;;;;;;;0.80;0.80;;;20.40;99.90;;;;;;5066805;28;20261;-79
2022/08/08 06:17:51;;;;;;;0.20;0.20;;;20.60;99.90;;;;;;5066707;28;20196;-79
2022/08/08 06:20:16;;;;;;;0.30;0.30;;;20.70;99.90;;;;;;5069322;28;20186;-79
2022/08/08 06:22:42;;;;;;;0.20;0.20;;;20.80;99.90;;;;;;5060085;28;20208;-79
2022/08/08 06:25:08;;;;;;;0.40;0.37;;;21.10;99.90;;;;;;5066703;28;20943;-79
2022/08/08 06:27:54;;;;;;;0.20;0.20;;;21.20;99.90;;;;;;5060035;28;20185;-79
2022/08/08 06:30:20;;;;;;;0.20;0.20;;;21.30;99.90;;;;;;5075175;28;20181;-79
2022/08/08 06:32:56;;;;;;;0.57;0.30;;;21.30;99.90;;;;;;5070139;28;20640;-79
2022/08/08 06:35:22;;;;;;;0.20;0.20;;;21.60;99.90;;;;;;5068732;28;20201;-79
2022/08/08 06:38:00;;;;;;;0.17;0.17;;;21.90;99.90;;;;;;5071875;28;20188;-79
2022/08/08 06:40:30;;;;;;;0.23;0.23;;;22.00;99.90;;;;;;5064449;28;20173;-79
2022/08/08 06:43:08;;;;;;;0.20;0.20;;;22.00;99.90;;;;;;5071553;28;20214;-79
2022/08/08 06:45:35;;;;;;;0.17;0.17;;;21.90;99.90;;;;;;5070538;28;20520;-79
2022/08/08 06:48:01;;;;;;;0.20;0.20;;;22.30;99.90;;;;;;5070692;28;20564;-79
2022/08/08 06:50:27;;;;;;;0.10;0.10;;;22.60;99.90;;;;;;5067609;28;20201;-79
2022/08/08 06:52:52;;;;;;;0.30;0.30;;;22.80;99.90;;;;;;5074426;28;20216;-82
2022/08/08 06:55:24;;;;;;;0.40;0.40;;;22.80;99.90;;;;;;5078430;28;20182;-82
2022/08/08 06:57:50;;;;;;;0.67;0.40;;;22.80;99.90;;;;;;5075673;28;20177;-82
2022/08/08 07:00:16;;;;;;;0.20;0.20;;;22.80;99.90;;;;;;5080555;28;20203;-82
2022/08/08 07:02:50;;;;;;;1.03;0.60;;;22.80;99.90;;;;;;5077634;28;20211;-82
2022/08/08 07:05:21;;;;;;;0.30;0.30;;;22.80;99.90;;;;;;5064996;28;20454;-81
2022/08/08 07:08:16;;;;;;;0.30;0.30;;;23.00;99.90;;;;;;5090690;28;20189;-79
2022/08/08 07:10:48;;;;;;;0.63;0.40;;;23.00;99.90;;;;;;5071747;28;20181;-79
2022/08/08 07:13:16;;;;;;;0.17;0.17;;;22.90;99.90;;;;;;5072368;28;20242;-79
2022/08/08 07:16:07;;;;;;;0.20;0.20;;;23.00;99.90;;;;;;5070667;28;20184;-79
2022/08/08 07:19:05;;;;;;;2.40;0.60;;;23.00;99.90;;;;;;5068195;28;20185;-80
2022/08/08 07:21:54;;;;;;;0.60;0.33;;;23.20;99.90;;;;;;5075219;28;20181;-79
2022/08/08 07:24:33;;;;;;;0.30;0.30;;;23.60;99.90;;;;;;5074856;28;20197;-79
2022/08/08 07:27:00;;;;;;;0.20;0.20;;;23.70;99.90;;;;;;5067962;28;20173;-79
2022/08/08 07:29:25;;;;;;;0.30;0.30;;;23.60;99.90;;;;;;5067596;28;20291;-79
2022/08/08 07:31:51;;;;;;;0.20;0.20;;;23.70;99.90;;;;;;5070806;28;20266;-79
2022/08/08 07:34:18;;;;;;;0.87;0.57;;;23.90;99.90;;;;;;5066943;28;20210;-79
2022/08/08 07:36:45;;;;;;;0.10;0.10;;;23.70;99.90;;;;;;5066875;28;20215;-79
2022/08/08 07:39:11;;;;;;;0.20;0.20;;;23.90;99.90;;;;;;5068816;28;20169;-79
2022/08/08 07:41:37;;;;;;;1.47;0.50;;;23.80;99.90;;;;;;5070198;28;20208;-79
2022/08/08 07:44:04;;;;;;;0.20;0.20;;;23.70;99.90;;;;;;5064191;28;20284;-79
2022/08/08 07:46:30;;;;;;;0.20;0.20;;;24.10;99.90;;;;;;5065783;28;20177;-78
2022/08/08 07:48:56;;;;;;;0.30;0.30;;;24.50;99.90;;;;;;5077604;28;20200;-78
2022/08/08 07:51:23;;;;;;;0.20;0.20;;;24.70;99.90;;;;;;5065242;28;20204;-78
2022/08/08 07:54:02;;;;;;;0.20;0.20;;;25.00;99.90;;;;;;5070677;28;20297;-79
2022/08/08 07:56:35;;;;;;;0.20;0.20;;;25.10;99.90;;;;;;5085644;28;20180;-79
2022/08/08 07:59:02;;;;;;;0.20;0.20;;;25.00;99.90;;;;;;5065274;28;20691;-78
2022/08/08 08:01:33;;;;;;;0.27;0.27;;;25.00;99.90;;;;;;5062552;28;20173;-79
2022/08/08 08:04:03;;;;;;;0.20;0.20;;;24.70;99.90;;;;;;5066841;28;20211;-79
2022/08/08 08:06:31;;;;;;;0.40;0.40;;;24.80;99.90;;;;;;5061653;28;20263;-79
2022/08/08 08:09:10;;;;;;;0.20;0.20;;;25.10;99.90;;;;;;5072110;28;20188;-80
2022/08/08 08:11:41;;;;;;;0.40;0.40;;;24.90;99.90;;;;;;5067060;28;20196;-81
2022/08/08 08:14:07;;;;;;;0.20;0.20;;;25.20;99.90;;;;;;5070133;28;20205;-80
2022/08/08 08:16:36;;;;;;;0.20;0.20;;;25.20;99.90;;;;;;5063080;28;20184;-80
2022/08/08 08:19:05;;;;;;;0.30;0.30;;;25.00;99.90;;;;;;5069857;28;20661;-79
2022/08/08 08:21:48;;;;;;;0.30;0.30;;;25.00;99.90;;;;;;5065483;28;20177;-79
2022/08/08 08:24:14;;;;;;;0.20;0.20;;;25.30;99.90;;;;;;5068516;28;20582;-80
2022/08/08 08:26:40;;;;;;;0.30;0.30;;;25.70;99.90;;;;;;5065302;28;20181;-79
2022/08/08 08:29:06;;;;;;;0.30;0.30;;;25.40;99.90;;;;;;5069628;28;20207;-80
2022/08/08 08:31:32;;;;;;;0.20;0.20;;;25.70;99.90;;;;;;5061278;28;20189;-79
2022/08/08 08:33:58;;;;;;;0.30;0.30;;;25.70;99.90;;;;;;5084971;28;20212;-80
2022/08/08 08:36:23;;;;;;;1.70;0.40;;;25.70;99.90;;;;;;5089467;28;20177;-80
2022/08/08 08:38:49;;;;;;;0.20;0.20;;;25.70;99.90;;;;;;5072895;28;20597;-80
2022/08/08 08:41:18;;;;;;;0.20;0.20;;;25.60;99.90;;;;;;5074281;28;20544;-80
2022/08/08 08:43:45;;;;;;;0.30;0.30;;;25.90;99.90;;;;;;5071356;28;20220;-80
2022/08/08 08:46:12;;;;;;;0.37;0.27;;;26.30;99.90;;;;;;5068185;28;20327;-80
2022/08/08 08:48:39;;;;;;;0.40;0.40;;;26.30;99.90;;;;;;5070450;28;20197;-80
2022/08/08 08:51:10;;;;;;;0.20;0.20;;;26.40;99.90;;;;;;5072810;28;20279;-80
2022/08/08 08:53:41;;;;;;;0.80;0.80;;;26.60;99.90;;;;;;5071118;28;20502;-80
2022/08/08 08:56:09;;;;;;;0.33;0.33;;;26.90;99.90;;;;;;5069829;28;20203;-79
2022/08/08 08:58:41;;;;;;;0.20;0.20;;;26.40;99.90;;;;;;5073681;28;20177;-80
2022/08/08 09:01:09;;;;;;;0.20;0.20;;;26.70;99.90;;;;;;5072753;28;20253;-79
2022/08/08 09:03:35;;;;;;;0.30;0.30;;;26.20;99.90;;;;;;5069232;28;20251;-79
2022/08/08 09:06:02;;;;;;;0.30;0.30;;;26.70;99.90;;;;;;5088313;28;20184;-80
2022/08/08 09:08:31;;;;;;;0.20;0.20;;;26.70;99.90;;;;;;5072581;28;20216;-79
2022/08/08 09:10:57;;;;;;;2.47;0.60;;;26.60;99.90;;;;;;5091129;28;20195;-79
2022/08/08 09:13:24;;;;;;;0.47;0.47;;;26.40;99.90;;;;;;5072536;28;20189;-80
2022/08/08 09:15:50;;;;;;;0.23;0.23;;;26.30;99.90;;;;;;5070198;28;20906;-79
2022/08/08 09:18:16;;;;;;;1.07;0.50;;;26.40;99.90;;;;;;5074065;28;20181;-84
2022/08/08 09:20:45;;;;;;;0.37;0.37;;;26.50;99.90;;;;;;5067346;28;20205;-83
2022/08/08 09:23:14;;;;;;;0.30;0.30;;;26.40;99.90;;;;;;5073912;28;20754;-83
2022/08/08 09:25:48;;;;;;;0.63;0.40;;;26.80;99.90;;;;;;5072335;28;20677;-83
2022/08/08 09:28:14;;;;;;;0.20;0.20;;;27.00;99.90;;;;;;5073836;28;20506;-80
2022/08/08 09:30:42;;;;;;;0.30;0.30;;;27.30;99.90;;;;;;5075311;28;20187;-80
2022/08/08 09:33:10;;;;;;;0.20;0.20;;;26.80;99.90;;;;;;5073461;28;20221;-81
2022/08/08 09:35:38;;;;;;;0.25;0.25;;;27.30;99.90;;;;;;5087946;28;20177;-82
2022/08/08 09:38:04;;;;;;;0.33;0.33;;;27.70;99.90;;;;;;5086275;28;20174;-81
2022/08/08 09:40:33;;;;;;;0.25;0.25;;;27.10;99.90;;;;;;5077616;28;20173;-81
2022/08/08 09:43:19;;;;;;;0.20;0.20;;;27.20;99.90;;;;;;5083278;28;20208;-81
2022/08/08 09:46:00;;;;;;;0.55;0.30;;;27.20;99.90;;;;;;5068863;28;20188;-81
2022/08/08 09:48:30;;;;;;;0.30;0.30;;;27.20;99.90;;;;;;5071300;28;20189;-79
2022/08/08 09:50:57;;;;;;;0.40;0.40;;;27.30;99.90;;;;;;5090600;28;20201;-80
2022/08/08 09:53:28;;;;;;;0.77;0.77;;;27.00;99.90;;;;;;5067998;28;20228;-79
2022/08/08 09:55:54;;;;;;;0.20;0.20;;;26.60;99.90;;;;;;5075092;28;20173;-79
2022/08/08 09:58:20;;;;;;;0.30;0.30;;;27.00;99.90;;;;;;5071101;28;20189;-80
2022/08/08 10:00:48;;;;;;;0.30;0.30;;;26.90;99.90;;;;;;5072226;28;20189;-80
2022/08/08 10:03:15;;;;;;;0.20;0.20;;;27.40;99.90;;;;;;5066953;28;20295;-79
2022/08/08 10:05:42;;;;;;;0.30;0.30;;;27.70;99.90;;;;;;5073003;28;20196;-80
2022/08/08 10:08:08;;;;;;;0.32;0.30;;;27.20;99.90;;;;;;5071820;28;20231;-79
2022/08/08 10:10:41;;;;;;;0.25;0.25;;;27.60;99.90;;;;;;5071574;28;20181;-80
2022/08/08 10:13:18;;;;;;;0.20;0.20;;;27.30;99.90;;;;;;5061653;28;20228;-79
2022/08/08 10:15:49;;;;;;;0.25;0.25;;;27.40;99.90;;;;;;5067580;28;20254;-80
2022/08/08 10:18:32;;;;;;;0.47;0.47;;;27.80;99.90;;;;;;5072543;28;20182;-80
2022/08/08 10:21:06;;;;;;;0.30;0.30;;;27.40;99.90;;;;;;5070584;28;20181;-80
2022/08/08 10:23:45;;;;;;;0.80;0.55;;;28.10;99.90;;;;;;5073226;28;20205;-79
2022/08/08 10:26:23;;;;;;;0.40;0.40;;;28.10;99.90;;;;;;5070095;28;20548;-81
2022/08/08 10:29:16;;;;;;;0.30;0.30;;;27.80;99.90;;;;;;5086706;28;20216;-80
2022/08/08 10:34:27;;;;;;;0.20;0.20;;;28.20;99.90;;;;;;5066365;28;20281;-79
2022/08/08 10:36:55;;;;;;;0.55;0.55;;;28.10;99.90;;;;;;5071934;28;20181;-80
2022/08/08 10:39:26;;;;;;;0.95;0.70;;;27.80;99.90;;;;;;5070387;28;20184;-80
2022/08/08 10:42:01;;;;;;;0.30;0.30;;;27.70;99.90;;;;;;5073915;28;20673;-79
2022/08/08 10:44:35;;;;;;;0.20;0.20;;;28.30;99.90;;;;;;5067723;28;20590;-80
2022/08/08 10:47:12;;;;;;;0.38;0.38;;;28.50;99.90;;;;;;5065441;28;20202;-79
2022/08/08 10:49:40;;;;;;;1.05;1.02;;;27.90;99.90;;;;;;5066398;28;20200;-80
2022/08/08 10:52:06;;;;;;;0.75;0.50;;;28.10;99.90;;;;;;5071065;28;20205;-79
2022/08/08 10:54:31;;;;;;;0.25;0.25;;;28.00;99.90;;;;;;5068842;28;20207;-80
2022/08/08 10:56:58;;;;;;;0.30;0.30;;;28.20;99.90;;;;;;5070356;28;20184;-79
2022/08/08 10:59:25;;;;;;;0.25;0.25;;;28.70;99.90;;;;;;5084584;28;20174;-80
2022/08/08 11:01:51;;;;;;;0.30;0.30;;;29.20;99.90;;;;;;5069724;28;20237;-80
2022/08/08 11:04:17;;;;;;;0.38;0.38;;;29.10;99.90;;;;;;5073083;28;20291;-80
2022/08/08 11:06:43;;;;;;;0.38;0.25;;;28.60;99.90;;;;;;5074138;28;20196;-80
2022/08/08 11:09:10;;;;;;;0.20;0.20;;;28.80;99.80;;;;;;5070916;28;20185;-80
2022/08/08 11:11:44;;;;;;;0.30;0.30;;;28.40;99.90;;;;;;5066490;28;20205;-80
2022/08/08 11:14:12;;;;;;;0.50;0.50;;;28.60;99.90;;;;;;5073550;28;20204;-79
2022/08/08 11:16:44;;;;;;;0.22;0.22;;;28.60;99.90;;;;;;5071849;28;20177;-79
2022/08/08 11:19:10;;;;;;;0.20;0.20;;;29.10;99.90;;;;;;5064358;28;20212;-80
2022/08/08 11:21:44;;;;;;;0.20;0.20;;;29.50;99.50;;;;;;5067859;28;20186;-80
2022/08/08 11:24:10;;;;;;;0.20;0.20;;;29.70;99.60;;;;;;5068104;28;20200;-80
2022/08/08 11:26:39;;;;;;;0.20;0.20;;;29.50;99.90;;;;;;5066552;28;20647;-80
2022/08/08 11:29:06;;;;;;;1.45;1.08;;;29.70;99.70;;;;;;5069660;28;20187;-80
2022/08/08 11:31:35;;;;;;;0.38;0.38;;;30.00;99.60;;;;;;5076480;28;20216;-80
2022/08/08 11:34:02;;;;;;;0.20;0.20;;;29.90;99.90;;;;;;5073479;28;20568;-81
2022/08/08 11:36:29;;;;;;;0.70;0.40;;;30.10;99.70;;;;;;5071514;28;20173;-80
2022/08/08 11:38:56;;;;;;;0.30;0.30;;;29.30;99.40;;;;;;5087504;28;20188;-80
2022/08/08 11:41:23;;;;;;;0.40;0.40;;;29.50;99.90;;;;;;5064588;28;20185;-80
2022/08/08 11:43:50;;;;;;;0.50;0.50;;;29.70;99.30;;;;;;5072914;28;20197;-80
2022/08/08 11:46:16;;;;;;;0.30;0.30;;;29.50;99.20;;;;;;5071696;28;20558;-80
2022/08/08 11:48:42;;;;;;;0.20;0.20;;;29.90;98.40;;;;;;5071252;28;20212;-80
2022/08/08 11:51:10;;;;;;;0.20;0.20;;;30.30;99.10;;;;;;5066882;28;20727;-80
2022/08/08 11:53:36;;;;;;;0.38;0.38;;;30.00;98.40;;;;;;5064241;28;20209;-80
2022/08/08 11:56:01;;;;;;;0.20;0.20;;;29.70;98.30;;;;;;5068837;28;20267;-80
2022/08/08 11:58:34;;;;;;;0.30;0.30;;;29.90;98.70;;;;;;5069360;28;20211;-80
2022/08/08 12:01:03;;;;;;;0.30;0.30;;;30.30;98.20;;;;;;5070642;28;20173;-80
2022/08/08 12:03:35;;;;;;;0.28;0.28;;;29.30;98.20;;;;;;5071138;28;20210;-80
2022/08/08 12:06:14;;;;;;;0.20;0.20;;;29.70;98.20;;;;;;5070010;28;20181;-79
2022/08/08 12:08:40;;;;;;;0.70;0.55;;;29.70;98.90;;;;;;5071446;28;20177;-80
2022/08/08 12:11:11;;;;;;;0.20;0.20;;;29.50;98.50;;;;;;5065235;28;20186;-79
2022/08/08 12:13:37;;;;;;;0.47;0.47;;;29.20;99.00;;;;;;5068775;28;20610;-80
2022/08/08 12:16:11;;;;;;;0.32;0.30;;;28.60;99.00;;;;;;5065955;28;20539;-80
2022/08/08 12:18:54;;;;;;;0.32;0.32;;;29.30;98.90;;;;;;5067266;28;20173;-80
2022/08/08 12:21:31;;;;;;;0.40;0.40;;;29.60;98.00;;;;;;5070276;28;20181;-80
2022/08/08 12:24:08;;;;;;;0.43;0.30;;;29.80;98.20;;;;;;5068287;28;20238;-80
2022/08/08 12:26:37;;;;;;;0.20;0.20;;;29.30;99.00;;;;;;5070410;28;20204;-80
2022/08/08 12:29:19;;;;;;;0.40;0.40;;;29.20;98.60;;;;;;5068237;28;20649;-80
2022/08/08 12:31:45;;;;;;;0.28;0.28;;;28.90;98.80;;;;;;5071231;28;20689;-79
2022/08/08 12:34:11;;;;;;;0.30;0.30;;;29.60;98.70;;;;;;5066758;28;22076;-80
2022/08/08 12:36:41;;;;;;;0.30;0.30;;;30.00;98.20;;;;;;5063745;28;20190;-80
2022/08/08 12:39:07;;;;;;;0.40;0.40;;;30.30;98.10;;;;;;5068035;28;20177;-80
2022/08/08 12:41:35;;;;;;;0.22;0.22;;;30.30;98.70;;;;;;5070470;28;20173;-80
2022/08/08 12:44:08;;;;;;;0.30;0.30;;;30.70;98.00;;;;;;5072974;28;20208;-80
2022/08/08 12:46:35;;;;;;;0.30;0.30;;;30.90;97.70;;;;;;5061676;28;20330;-80
2022/08/08 12:49:03;;;;;;;0.28;0.28;;;31.00;97.60;;;;;;5071545;28;20208;-80
2022/08/08 12:51:43;;;;;;;0.20;0.20;;;31.20;97.30;;;;;;5069298;28;20304;-80
2022/08/08 12:54:23;;;;;;;0.38;0.38;;;31.40;97.60;;;;;;5061011;28;20251;-80
2022/08/08 12:56:48;;;;;;;0.35;0.30;;;31.30;96.80;;;;;;5064452;28;20254;-80
2022/08/08 12:59:15;;;;;;;0.22;0.22;;;30.30;97.60;;;;;;5071379;28;20173;-80
2022/08/08 13:01:41;;;;;;;0.90;0.50;;;29.80;98.30;;;;;;5066929;28;20276;-80
2022/08/08 13:04:15;;;;;;;0.40;0.40;;;29.60;97.80;;;;;;5067181;28;20240;-80
2022/08/08 13:07:03;;;;;;;0.28;0.28;;;29.80;98.40;;;;;;5071496;28;20229;-80
2022/08/08 13:09:31;;;;;;;0.25;0.25;;;29.80;98.50;;;;;;5067053;28;20186;-80
2022/08/08 13:11:57;;;;;;;0.60;0.60;;;30.10;98.10;;;;;;5060919;28;20632;-80
2022/08/08 13:14:47;;;;;;;0.30;0.30;;;30.20;98.70;;;;;;5063904;28;20201;-80
2022/08/08 13:17:15;;;;;;;0.30;0.30;;;29.80;97.90;;;;;;5068001;28;20192;-80
2022/08/08 13:19:42;;;;;;;0.60;0.60;;;29.70;98.50;;;;;;5064555;28;20514;-80
2022/08/08 13:22:08;;;;;;;0.20;0.20;;;30.20;98.00;;;;;;5060753;28;20188;-80
2022/08/08 13:24:38;;;;;;;0.40;0.40;;;30.30;98.00;;;;;;5069788;28;20566;-79
2022/08/08 13:27:15;;;;;;;1.55;0.70;;;30.70;97.20;;;;;;5071479;28;20211;-80
2022/08/08 13:29:48;;;;;;;0.20;0.20;;;29.70;97.30;;;;;;5065791;28;20193;-80